Sy Liara — 2BSK4 — position and weather

sailwx.info

Track history (hours):
 
Tides and Currents Weather Stations Pressure Air Temp Water Temp Dewpoint Dewpoint Depression Visibility Wind Speed Wind Dir Waves Ship Positions

Sy Liara

Last reported at 2016-May-27 12:23 UTC. Time now 2016-May-29 17:20 UTC.
Position N 39°34' E 002°38'.

Length 30 m.

Type: Sailing vessel. MMSI: 235068934.

Date/timePositionNaut miles runAvg speedWind from/ knotsBaromVisibWave heightAir tempDewpointWater temp
2016-May-27 12:23N 39°34' E 002°38'0 0.0
2016-May-27 11:32N 39°34' E 002°38'1 0.7
2016-May-27 10:33N 39°33' E 002°38'5 4.7
2016-May-27 09:33N 39°29' E 002°40'2 2.0
2016-May-27 08:33N 39°30' E 002°38'2 2.2
2016-May-27 07:33N 39°32' E 002°39'2 1.8
2016-May-27 06:32N 39°34' E 002°38'0 0.0
2016-May-27 05:29N 39°34' E 002°38'0 0.0
2016-May-27 04:32N 39°34' E 002°38'0 0.0
2016-May-27 03:32N 39°34' E 002°38'0 0.0
2016-May-27 02:32N 39°34' E 002°38'0 0.0
2016-May-27 01:32N 39°34' E 002°38'0 0.0
2016-May-27 00:32N 39°34' E 002°38'0 0.0
2016-May-26 23:29N 39°34' E 002°38'0 0.0
2016-May-26 22:32N 39°34' E 002°38'0 0.0
2016-May-26 21:32N 39°34' E 002°38'0 0.0
2016-May-26 20:32N 39°34' E 002°38'0 0.0
2016-May-26 19:32N 39°34' E 002°38'0 0.0
2016-May-26 18:32N 39°34' E 002°38'0 0.0
2016-May-26 17:32N 39°34' E 002°38'0 0.0
2016-May-26 16:32N 39°34' E 002°38'0 0.0
2016-May-26 15:32N 39°34' E 002°38'0 0.0
2016-May-26 14:32N 39°34' E 002°38'0 0.0
2016-May-26 13:32N 39°34' E 002°38'0 0.0
2016-May-26 12:32N 39°34' E 002°38'0 0.0
2016-May-26 11:32N 39°34' E 002°38'0 0.0
2016-May-26 10:32N 39°34' E 002°38'0 0.0
2016-May-26 09:32N 39°34' E 002°38'0 0.0
2016-May-26 08:29N 39°34' E 002°38'0 0.0
2016-May-26 07:29N 39°34' E 002°38'0 0.0
2016-May-26 06:32N 39°34' E 002°38'0 0.0
2016-May-26 05:32N 39°34' E 002°38'0 0.0
2016-May-26 04:32N 39°34' E 002°38'0 0.0
2016-May-26 03:32N 39°34' E 002°38'0 0.0
2016-May-26 02:32N 39°34' E 002°38'0 0.0
2016-May-26 01:32N 39°34' E 002°38'0 0.0
2016-May-26 00:32N 39°34' E 002°38'0 0.0
2016-May-25 23:32N 39°34' E 002°38'0 0.0
2016-May-25 22:32N 39°34' E 002°38'0 0.0
2016-May-25 21:32N 39°34' E 002°38'0 0.0
2016-May-25 20:32N 39°34' E 002°38'0 0.0
2016-May-25 19:32N 39°34' E 002°38'0 0.0
2016-May-25 18:32N 39°34' E 002°38'0 0.0
2016-May-25 17:32N 39°34' E 002°38'0 0.0
2016-May-25 16:32N 39°34' E 002°38'0 0.0
2016-May-25 15:32N 39°34' E 002°38'0 0.0
2016-May-25 14:32N 39°34' E 002°38'3 3.0
2016-May-25 13:33N 39°32' E 002°35'0 0.0
2016-May-25 12:33N 39°32' E 002°35'0 0.0
2016-May-25 11:33N 39°32' E 002°35'0 0.0
2016-May-25 10:27N 39°32' E 002°35'4 4.8
2016-May-25 09:33N 39°28' E 002°32'5 0.3
2016-May-24 16:29N 39°31' E 002°28'7 7.9
2016-May-24 15:33N 39°28' E 002°19'6 0.5
2016-May-24 03:03N 39°32' E 002°25'0 0.0
2016-May-24 02:33N 39°32' E 002°25'4 0.3
2016-May-23 14:28N 39°30' E 002°21'10 9.5
2016-May-23 13:25N 39°26' E 002°08'7 8.6
2016-May-23 12:33N 39°21' E 002°02'9 8.7
2016-May-23 11:33N 39°14' E 001°55'9 8.9
2016-May-23 10:32N 39°07' E 001°47'  
2016-May-18 09:08N 38°53' E 001°28'  
Track history (hours):
 
Tides and Currents Weather Stations Pressure Air Temp Water Temp Dewpoint Dewpoint Depression Visibility Wind Speed Wind Dir Waves Ship Positions

Sy Liara

Last reported at 2016-May-27 12:23 UTC. Time now 2016-May-29 17:20 UTC.
Position N 39°34' E 002°38'.

Length 30 m.

Type: Sailing vessel. MMSI: 235068934.

Date/timePositionNaut miles runAvg speedWind from/ knotsBaromVisibWave heightAir tempDewpointWater temp
2016-May-27 12:23N 39°34' E 002°38'0 0.0
2016-May-27 11:32N 39°34' E 002°38'1 0.7
2016-May-27 10:33N 39°33' E 002°38'5 4.7
2016-May-27 09:33N 39°29' E 002°40'2 2.0
2016-May-27 08:33N 39°30' E 002°38'2 2.2
2016-May-27 07:33N 39°32' E 002°39'2 1.8
2016-May-27 06:32N 39°34' E 002°38'0 0.0
2016-May-27 05:29N 39°34' E 002°38'0 0.0
2016-May-27 04:32N 39°34' E 002°38'0 0.0
2016-May-27 03:32N 39°34' E 002°38'0 0.0
2016-May-27 02:32N 39°34' E 002°38'0 0.0
2016-May-27 01:32N 39°34' E 002°38'0 0.0
2016-May-27 00:32N 39°34' E 002°38'0 0.0
2016-May-26 23:29N 39°34' E 002°38'0 0.0
2016-May-26 22:32N 39°34' E 002°38'0 0.0
2016-May-26 21:32N 39°34' E 002°38'0 0.0
2016-May-26 20:32N 39°34' E 002°38'0 0.0
2016-May-26 19:32N 39°34' E 002°38'0 0.0
2016-May-26 18:32N 39°34' E 002°38'0 0.0
2016-May-26 17:32N 39°34' E 002°38'0 0.0
2016-May-26 16:32N 39°34' E 002°38'0 0.0
2016-May-26 15:32N 39°34' E 002°38'0 0.0
2016-May-26 14:32N 39°34' E 002°38'0 0.0
2016-May-26 13:32N 39°34' E 002°38'0 0.0
2016-May-26 12:32N 39°34' E 002°38'0 0.0
2016-May-26 11:32N 39°34' E 002°38'0 0.0
2016-May-26 10:32N 39°34' E 002°38'0 0.0
2016-May-26 09:32N 39°34' E 002°38'0 0.0
2016-May-26 08:29N 39°34' E 002°38'0 0.0
2016-May-26 07:29N 39°34' E 002°38'0 0.0
2016-May-26 06:32N 39°34' E 002°38'0 0.0
2016-May-26 05:32N 39°34' E 002°38'0 0.0
2016-May-26 04:32N 39°34' E 002°38'0 0.0
2016-May-26 03:32N 39°34' E 002°38'0 0.0
2016-May-26 02:32N 39°34' E 002°38'0 0.0
2016-May-26 01:32N 39°34' E 002°38'0 0.0
2016-May-26 00:32N 39°34' E 002°38'0 0.0
2016-May-25 23:32N 39°34' E 002°38'0 0.0
2016-May-25 22:32N 39°34' E 002°38'0 0.0
2016-May-25 21:32N 39°34' E 002°38'0 0.0
2016-May-25 20:32N 39°34' E 002°38'0 0.0
2016-May-25 19:32N 39°34' E 002°38'0 0.0
2016-May-25 18:32N 39°34' E 002°38'0 0.0
2016-May-25 17:32N 39°34' E 002°38'0 0.0
2016-May-25 16:32N 39°34' E 002°38'0 0.0
2016-May-25 15:32N 39°34' E 002°38'0 0.0
2016-May-25 14:32N 39°34' E 002°38'3 3.0
2016-May-25 13:33N 39°32' E 002°35'0 0.0
2016-May-25 12:33N 39°32' E 002°35'0 0.0
2016-May-25 11:33N 39°32' E 002°35'0 0.0
2016-May-25 10:27N 39°32' E 002°35'4 4.8
2016-May-25 09:33N 39°28' E 002°32'5 0.3
2016-May-24 16:29N 39°31' E 002°28'7 7.9
2016-May-24 15:33N 39°28' E 002°19'6 0.5
2016-May-24 03:03N 39°32' E 002°25'0 0.0
2016-May-24 02:33N 39°32' E 002°25'4 0.3
2016-May-23 14:28N 39°30' E 002°21'10 9.5
2016-May-23 13:25N 39°26' E 002°08'7 8.6
2016-May-23 12:33N 39°21' E 002°02'9 8.7
2016-May-23 11:33N 39°14' E 001°55'9 8.9
2016-May-23 10:32N 39°07' E 001°47'  
2016-May-18 09:08N 38°53' E 001°28'  

Dump ship's entire track history